Time;durP1;ratioP1;P1;durP2;ratioP2;P2;SDS_P1;SDS_P2;PMS_P1;PMS_P2;Temp;Humidity;BMP_temperature;BMP_pressure;BME280_temperature;BME280_humidity;BME280_pressure;Samples;Min_cycle;Max_cycle;Signal;HPM_P1;HPM_P2
2022/01/27 00:01:07;;;;;;;33.25;13.15;;;4.60;99.90;;;;;;5095478;28;20050;-52
2022/01/27 00:03:49;;;;;;;26.10;11.15;;;4.60;99.90;;;;;;5095501;28;20024;-51
2022/01/27 00:06:16;;;;;;;26.77;10.23;;;4.50;99.90;;;;;;5093983;28;20038;-50
2022/01/27 00:08:48;;;;;;;25.13;10.73;;;4.50;99.90;;;;;;5095241;28;20016;-50
2022/01/27 00:11:15;;;;;;;24.77;10.82;;;4.50;99.90;;;;;;5094892;28;20147;-50
2022/01/27 00:13:55;;;;;;;29.02;10.70;;;4.50;99.90;;;;;;5094194;28;20111;-50
2022/01/27 00:16:26;;;;;;;40.33;14.38;;;4.50;99.90;;;;;;5093888;28;20027;-51
2022/01/27 00:18:53;;;;;;;30.70;11.23;;;4.50;99.90;;;;;;5095298;28;20024;-50
2022/01/27 00:21:22;;;;;;;29.20;10.80;;;4.50;99.90;;;;;;5093726;28;20016;-52
2022/01/27 00:23:48;;;;;;;30.65;11.45;;;4.50;99.90;;;;;;5093583;28;20020;-53
2022/01/27 00:26:16;;;;;;;30.13;11.80;;;4.60;99.90;;;;;;5094792;28;20046;-53
2022/01/27 00:28:43;;;;;;;23.10;9.57;;;4.50;99.90;;;;;;5095114;28;20016;-52
2022/01/27 00:31:09;;;;;;;28.45;11.00;;;4.50;99.90;;;;;;5093486;28;20020;-51
2022/01/27 00:33:35;;;;;;;35.08;14.52;;;4.50;99.90;;;;;;5094987;28;20028;-49
2022/01/27 00:36:00;;;;;;;24.27;10.75;;;4.50;99.90;;;;;;5093392;28;20023;-50
2022/01/27 00:38:26;;;;;;;28.88;11.45;;;4.50;99.90;;;;;;5094131;28;20026;-50
2022/01/27 00:40:52;;;;;;;25.45;9.65;;;4.50;99.90;;;;;;5093396;28;20024;-52
2022/01/27 00:43:18;;;;;;;34.38;12.68;;;4.50;99.90;;;;;;5093324;28;20073;-51
2022/01/27 00:45:44;;;;;;;29.13;11.10;;;4.40;99.90;;;;;;5093264;28;20487;-50
2022/01/27 00:48:10;;;;;;;26.08;10.77;;;4.50;99.90;;;;;;5094256;28;20058;-53
2022/01/27 00:50:38;;;;;;;27.73;11.23;;;4.50;99.90;;;;;;5094360;28;20024;-51
2022/01/27 00:53:17;;;;;;;25.08;10.25;;;4.40;99.90;;;;;;5093185;28;20016;-51
2022/01/27 00:55:42;;;;;;;29.13;10.52;;;4.40;99.90;;;;;;5093568;28;20158;-52
2022/01/27 00:58:49;;;;;;;34.10;11.60;;;4.40;99.90;;;;;;5094684;28;20062;-49
2022/01/27 01:01:03;;;;;;;23.45;11.32;;;4.40;99.90;;;;;;5092200;28;20062;-53
2022/01/27 01:03:31;;;;;;;24.85;10.27;;;4.30;99.90;;;;;;5092943;28;20107;-54
2022/01/27 01:30:05;;;;;;;32.58;12.27;;;4.30;99.90;;;;;;5094121;28;20030;-52
2022/01/27 01:32:43;;;;;;;31.42;11.40;;;4.20;99.90;;;;;;5092326;28;20024;-52
2022/01/27 01:35:10;;;;;;;32.30;12.30;;;4.20;99.90;;;;;;5094272;28;20030;-51
2022/01/27 01:37:39;;;;;;;27.98;12.05;;;4.20;99.90;;;;;;5093619;28;20058;-51
2022/01/27 01:40:11;;;;;;;32.17;12.20;;;4.30;99.90;;;;;;5092620;28;20026;-50
2022/01/27 01:42:37;;;;;;;27.60;10.55;;;4.30;99.90;;;;;;5093524;28;20471;-50
2022/01/27 01:45:08;;;;;;;27.30;10.70;;;4.50;99.90;;;;;;5093494;28;20076;-49
2022/01/27 01:50:57;;;;;;;30.52;11.90;;;4.40;99.90;;;;;;5093766;28;20018;-50
2022/01/27 01:53:23;;;;;;;35.83;12.25;;;4.30;99.90;;;;;;5093906;28;20018;-52
2022/01/27 01:55:48;;;;;;;25.77;10.10;;;4.30;99.90;;;;;;5093361;28;20080;-53
2022/01/27 01:58:14;;;;;;;34.20;12.73;;;4.40;99.90;;;;;;5092409;28;20103;-51
2022/01/27 02:00:39;;;;;;;24.17;9.85;;;4.40;99.90;;;;;;5093294;28;20050;-50
2022/01/27 02:03:05;;;;;;;34.58;11.25;;;4.50;99.90;;;;;;5093453;28;20024;-50
2022/01/27 02:05:37;;;;;;;33.13;12.02;;;4.80;99.90;;;;;;5093546;28;20028;-53
2022/01/27 02:19:07;;;;;;;39.53;13.27;;;4.30;99.90;;;;;;5093205;28;20035;-51
2022/01/27 02:21:32;;;;;;;38.67;12.15;;;4.20;99.90;;;;;;5091957;28;20016;-50
2022/01/27 02:23:58;;;;;;;33.55;11.70;;;4.20;99.90;;;;;;5091997;28;20384;-50
2022/01/27 02:26:24;;;;;;;31.42;10.88;;;4.30;99.90;;;;;;5091710;28;20055;-50
2022/01/27 02:28:49;;;;;;;28.70;10.68;;;4.20;99.90;;;;;;5093322;28;20016;-51
2022/01/27 02:31:15;;;;;;;31.25;12.02;;;4.30;99.90;;;;;;5093326;28;20024;-53
2022/01/27 02:33:40;;;;;;;36.95;12.20;;;4.40;99.90;;;;;;5093359;28;20024;-52
2022/01/27 02:36:06;;;;;;;34.20;12.90;;;4.30;99.90;;;;;;5093032;28;20027;-51
2022/01/27 02:38:32;;;;;;;39.38;11.73;;;4.30;99.90;;;;;;5092104;28;20024;-55
2022/01/27 02:41:03;;;;;;;31.20;9.93;;;4.30;99.90;;;;;;5092950;28;20028;-54
2022/01/27 02:43:28;;;;;;;32.78;11.23;;;4.20;99.90;;;;;;5091777;28;20027;-51
2022/01/27 02:46:08;;;;;;;31.17;11.23;;;4.20;99.90;;;;;;5094733;28;20020;-50
2022/01/27 02:48:33;;;;;;;29.25;10.35;;;4.20;99.90;;;;;;5096377;28;20080;-50
2022/01/27 02:50:59;;;;;;;29.80;9.85;;;4.20;99.90;;;;;;5095527;28;20115;-54
2022/01/27 02:53:24;;;;;;;31.70;10.07;;;4.20;99.90;;;;;;5096520;28;20023;-54
2022/01/27 02:55:50;;;;;;;26.95;10.02;;;4.20;99.90;;;;;;5095620;28;20341;-50
2022/01/27 02:58:16;;;;;;;33.75;10.63;;;4.20;99.90;;;;;;5095278;28;20028;-52
2022/01/27 03:00:42;;;;;;;29.75;10.98;;;4.20;99.90;;;;;;5095693;28;20020;-53
2022/01/27 03:03:08;;;;;;;27.90;10.00;;;4.20;99.90;;;;;;5096568;28;20024;-50
2022/01/27 03:05:33;;;;;;;42.17;10.30;;;4.10;99.90;;;;;;5095526;28;20537;-52
2022/01/27 03:08:00;;;;;;;26.33;10.88;;;4.20;99.90;;;;;;5095400;28;20070;-53
2022/01/27 03:10:29;;;;;;;29.20;10.20;;;4.10;99.90;;;;;;5096371;28;20107;-53
2022/01/27 03:12:59;;;;;;;28.17;9.63;;;4.20;99.90;;;;;;5096899;28;20069;-52
2022/01/27 03:15:26;;;;;;;30.38;10.27;;;4.20;99.90;;;;;;5095053;28;20039;-52
2022/01/27 03:17:52;;;;;;;37.17;12.13;;;4.10;99.90;;;;;;5095003;28;20034;-51
2022/01/27 03:20:18;;;;;;;32.13;10.57;;;4.10;99.90;;;;;;5096544;28;20026;-50
2022/01/27 03:22:44;;;;;;;45.20;16.98;;;4.10;99.90;;;;;;5094854;28;20091;-56
2022/01/27 03:25:09;;;;;;;42.88;13.70;;;4.20;99.90;;;;;;5095235;28;20091;-53
2022/01/27 03:27:35;;;;;;;39.28;13.40;;;4.10;99.90;;;;;;5095895;28;20039;-57
2022/01/27 03:30:01;;;;;;;36.65;12.23;;;4.00;99.90;;;;;;5095990;28;20020;-55
2022/01/27 03:32:27;;;;;;;42.10;13.52;;;4.10;99.90;;;;;;5094761;28;20020;-53
2022/01/27 03:34:53;;;;;;;47.42;15.07;;;4.20;99.90;;;;;;5095902;28;20020;-50
2022/01/27 03:37:19;;;;;;;45.00;15.75;;;4.20;99.90;;;;;;5095842;28;20097;-52
2022/01/27 03:39:44;;;;;;;47.33;15.35;;;4.10;99.90;;;;;;5095266;28;20442;-50
2022/01/27 03:42:10;;;;;;;32.70;10.98;;;4.10;99.90;;;;;;5094959;28;20026;-54
2022/01/27 03:44:36;;;;;;;44.33;12.48;;;4.10;99.90;;;;;;5094804;28;20035;-52
2022/01/27 03:47:03;;;;;;;43.05;12.38;;;4.20;99.90;;;;;;5095889;28;20020;-52
2022/01/27 03:49:28;;;;;;;42.78;12.43;;;4.20;99.90;;;;;;5095895;28;20035;-50
2022/01/27 03:51:59;;;;;;;42.97;13.18;;;4.00;99.90;;;;;;5095617;28;20020;-52
2022/01/27 03:54:25;;;;;;;42.22;14.10;;;4.00;99.90;;;;;;5095491;28;20028;-52
2022/01/27 03:56:51;;;;;;;40.47;11.68;;;4.00;99.90;;;;;;5094914;28;20035;-50
2022/01/27 03:59:16;;;;;;;41.20;12.70;;;3.90;99.90;;;;;;5095175;28;20113;-51
2022/01/27 04:01:42;;;;;;;50.28;14.75;;;3.90;99.90;;;;;;5095242;28;20023;-51
2022/01/27 04:04:07;;;;;;;41.83;12.10;;;3.80;99.90;;;;;;5094794;28;20069;-51
2022/01/27 04:06:36;;;;;;;46.25;14.10;;;3.90;99.90;;;;;;5095285;28;20020;-52
2022/01/27 04:09:04;;;;;;;42.67;12.35;;;4.00;99.90;;;;;;5094290;28;20093;-53
2022/01/27 04:11:29;;;;;;;35.42;11.60;;;3.90;99.90;;;;;;5095165;28;20025;-53
2022/01/27 04:13:55;;;;;;;36.40;11.52;;;3.90;99.90;;;;;;5095437;28;20035;-57
2022/01/27 04:16:21;;;;;;;43.13;12.40;;;3.90;99.90;;;;;;5095189;28;20020;-51
2022/01/27 04:18:46;;;;;;;39.08;12.43;;;4.00;99.90;;;;;;5094075;28;20048;-52
2022/01/27 04:21:13;;;;;;;41.70;12.63;;;3.90;99.90;;;;;;5094075;28;20016;-51
2022/01/27 04:23:39;;;;;;;36.28;10.80;;;3.90;99.90;;;;;;5094910;28;20020;-57
2022/01/27 04:26:06;;;;;;;36.95;11.65;;;3.90;99.90;;;;;;5093676;28;20198;-51
2022/01/27 04:28:34;;;;;;;40.53;12.25;;;3.90;99.90;;;;;;5095030;28;20024;-52
2022/01/27 04:31:03;;;;;;;33.15;11.57;;;3.90;99.90;;;;;;5093626;28;20499;-50
2022/01/27 04:33:31;;;;;;;36.00;10.05;;;4.00;99.90;;;;;;5093475;28;20410;-54
2022/01/27 04:36:00;;;;;;;40.00;11.43;;;4.00;99.90;;;;;;5093459;28;20031;-49
2022/01/27 04:48:55;;;;;;;40.72;11.35;;;4.10;99.90;;;;;;5094351;28;20028;-52
2022/01/27 04:51:23;;;;;;;41.47;11.95;;;4.00;99.90;;;;;;5094421;28;20070;-54
2022/01/27 04:56:22;;;;;;;40.10;11.52;;;4.00;99.90;;;;;;5094549;28;20097;-55
2022/01/27 04:58:53;;;;;;;34.05;10.48;;;3.90;99.90;;;;;;5094174;28;20028;-50
2022/01/27 05:01:24;;;;;;;32.35;11.05;;;4.00;99.90;;;;;;5094442;28;20581;-50
2022/01/27 05:03:57;;;;;;;37.58;11.50;;;4.00;99.90;;;;;;5094477;28;20031;-52
2022/01/27 05:06:22;;;;;;;35.45;10.85;;;4.00;99.90;;;;;;5092877;28;20020;-50
2022/01/27 05:08:48;;;;;;;41.33;11.07;;;4.00;99.90;;;;;;5092082;28;20491;-53
2022/01/27 05:11:22;;;;;;;27.27;9.38;;;3.90;99.90;;;;;;5093749;28;20023;-51
2022/01/27 05:13:56;;;;;;;32.10;10.35;;;4.00;99.90;;;;;;5092820;28;20024;-55
2022/01/27 05:16:21;;;;;;;36.80;10.82;;;4.00;99.90;;;;;;5094031;28;20028;-51
2022/01/27 05:18:47;;;;;;;32.55;9.88;;;4.10;99.90;;;;;;5093925;28;20020;-55
2022/01/27 05:21:13;;;;;;;32.08;9.10;;;4.10;99.90;;;;;;5092668;28;20020;-50
2022/01/27 05:23:38;;;;;;;30.00;9.77;;;4.10;99.90;;;;;;5094113;28;20050;-50
2022/01/27 05:26:04;;;;;;;33.35;9.65;;;4.10;99.90;;;;;;5092576;28;20034;-56
2022/01/27 05:28:30;;;;;;;30.17;9.40;;;4.00;99.90;;;;;;5093644;28;20024;-53
2022/01/27 05:30:56;;;;;;;34.33;9.25;;;4.00;99.90;;;;;;5093988;28;20086;-56
2022/01/27 05:33:21;;;;;;;33.53;9.82;;;4.00;99.90;;;;;;5092480;28;20436;-57
2022/01/27 05:35:47;;;;;;;32.00;9.77;;;4.00;99.90;;;;;;5093991;28;20012;-51
2022/01/27 05:38:17;;;;;;;31.35;9.55;;;3.90;99.90;;;;;;5092366;28;20119;-52
2022/01/27 05:40:44;;;;;;;33.30;8.63;;;3.90;99.90;;;;;;5092523;28;20024;-50
2022/01/27 05:43:11;;;;;;;35.85;9.63;;;3.90;99.90;;;;;;5093519;28;20020;-53
2022/01/27 05:45:37;;;;;;;38.60;11.38;;;3.90;99.90;;;;;;5092398;28;20502;-51
2022/01/27 05:48:04;;;;;;;37.50;10.13;;;3.90;99.90;;;;;;5093534;28;20035;-51
2022/01/27 05:50:30;;;;;;;36.28;10.85;;;3.90;99.90;;;;;;5092334;28;20024;-54
2022/01/27 05:52:56;;;;;;;32.40;10.10;;;3.90;99.90;;;;;;5094060;28;20031;-53
2022/01/27 05:55:22;;;;;;;36.35;10.35;;;4.10;99.90;;;;;;5092150;28;20016;-50
2022/01/27 05:57:47;;;;;;;29.02;9.90;;;4.10;99.90;;;;;;5092880;28;20028;-51
2022/01/27 06:00:13;;;;;;;31.50;9.30;;;4.00;99.90;;;;;;5093385;28;20541;-53
2022/01/27 06:02:39;;;;;;;29.50;9.98;;;4.00;99.90;;;;;;5093342;28;20024;-50
2022/01/27 06:05:05;;;;;;;25.58;7.45;;;4.10;99.90;;;;;;5093406;28;20035;-51
2022/01/27 06:07:31;;;;;;;35.10;9.18;;;4.10;99.90;;;;;;5093311;28;20105;-52
2022/01/27 06:09:58;;;;;;;35.00;10.35;;;4.20;99.90;;;;;;5091987;28;20066;-54
2022/01/27 06:12:24;;;;;;;28.85;7.93;;;4.20;99.90;;;;;;5092077;28;20020;-52
2022/01/27 06:14:50;;;;;;;37.13;9.32;;;4.20;99.90;;;;;;5092043;28;20030;-50
2022/01/27 06:17:15;;;;;;;35.42;10.43;;;4.20;99.90;;;;;;5093295;28;20112;-54
2022/01/27 06:19:45;;;;;;;38.55;10.05;;;4.40;99.90;;;;;;5093535;28;20024;-54
2022/01/27 06:22:15;;;;;;;36.25;10.48;;;4.40;99.90;;;;;;5096065;28;20055;-54
2022/01/27 06:24:44;;;;;;;28.85;9.93;;;4.40;99.90;;;;;;5096050;28;20024;-50
2022/01/27 06:27:11;;;;;;;30.02;9.15;;;4.30;99.90;;;;;;5095854;28;20028;-49
2022/01/27 06:29:37;;;;;;;30.48;9.18;;;4.40;99.90;;;;;;5097229;28;20020;-47
2022/01/27 06:32:04;;;;;;;34.72;10.80;;;4.50;99.90;;;;;;5097179;28;20012;-47
2022/01/27 06:34:30;;;;;;;31.00;9.82;;;4.70;99.90;;;;;;5097100;28;20029;-48
2022/01/27 06:36:56;;;;;;;36.15;10.20;;;5.00;99.90;;;;;;5096052;28;20024;-47
2022/01/27 06:39:22;;;;;;;31.40;9.00;;;4.70;99.90;;;;;;5095719;28;20028;-49
2022/01/27 06:41:47;;;;;;;27.73;8.95;;;4.90;99.90;;;;;;5096879;28;20103;-47
2022/01/27 06:44:13;;;;;;;39.25;10.05;;;5.10;99.90;;;;;;5096473;28;20464;-47
2022/01/27 06:46:39;;;;;;;25.13;9.15;;;4.90;99.90;;;;;;5095625;28;20088;-48
2022/01/27 06:49:05;;;;;;;26.42;9.27;;;4.80;99.90;;;;;;5096784;28;20024;-50
2022/01/27 06:51:31;;;;;;;31.17;9.05;;;4.80;99.90;;;;;;5096861;28;20044;-47
2022/01/27 06:53:58;;;;;;;27.33;8.85;;;4.90;99.90;;;;;;5096789;28;20149;-50
2022/01/27 06:56:25;;;;;;;27.38;8.93;;;4.90;99.90;;;;;;5095407;28;20052;-47
2022/01/27 06:58:51;;;;;;;28.17;8.75;;;4.80;99.90;;;;;;5096594;28;20020;-49
2022/01/27 07:01:17;;;;;;;38.05;10.60;;;4.90;99.90;;;;;;5095382;28;20030;-53
2022/01/27 07:03:42;;;;;;;27.88;9.00;;;4.80;99.90;;;;;;5095384;28;20073;-47
2022/01/27 07:06:08;;;;;;;26.33;8.45;;;4.70;99.90;;;;;;5096523;28;20020;-47
2022/01/27 07:08:33;;;;;;;32.40;9.60;;;4.90;99.90;;;;;;5096293;28;20141;-47
2022/01/27 07:10:59;;;;;;;26.13;8.23;;;4.90;99.90;;;;;;5095225;28;20024;-47
2022/01/27 07:13:24;;;;;;;31.80;9.80;;;4.80;99.90;;;;;;5096370;28;20020;-47
2022/01/27 07:15:50;;;;;;;29.08;9.23;;;4.60;99.90;;;;;;5096941;28;20055;-49
2022/01/27 07:18:16;;;;;;;27.98;8.10;;;4.80;99.90;;;;;;5094941;28;20030;-49
2022/01/27 07:20:42;;;;;;;31.08;9.07;;;4.90;99.90;;;;;;5096253;28;20028;-47
2022/01/27 07:23:09;;;;;;;31.63;9.25;;;5.00;99.90;;;;;;5096025;28;20028;-49
2022/01/27 07:25:36;;;;;;;26.45;8.50;;;5.00;99.90;;;;;;5095234;28;20024;-47
2022/01/27 07:28:01;;;;;;;34.25;9.40;;;4.90;99.90;;;;;;5095964;28;20091;-48
2022/01/27 07:30:27;;;;;;;34.72;10.35;;;5.00;99.90;;;;;;5095533;28;20028;-52
2022/01/27 07:32:52;;;;;;;24.30;8.20;;;4.70;99.90;;;;;;5094237;28;20024;-49
2022/01/27 07:35:18;;;;;;;29.83;9.48;;;4.90;99.90;;;;;;5094733;28;20468;-47
2022/01/27 07:37:46;;;;;;;30.38;10.07;;;5.00;99.90;;;;;;5095851;28;20078;-48
2022/01/27 07:40:12;;;;;;;27.42;9.32;;;4.90;99.90;;;;;;5095012;28;20035;-50
2022/01/27 07:42:38;;;;;;;27.90;8.38;;;4.90;99.90;;;;;;5096171;28;20035;-51
2022/01/27 07:45:05;;;;;;;29.52;8.88;;;5.00;99.90;;;;;;5095319;28;20027;-46
2022/01/27 07:47:30;;;;;;;25.35;9.02;;;5.10;99.90;;;;;;5094284;28;20024;-47
2022/01/27 07:49:56;;;;;;;28.02;9.93;;;5.00;99.90;;;;;;5095973;28;20027;-46
2022/01/27 07:52:21;;;;;;;23.77;8.18;;;5.10;99.90;;;;;;5094694;28;20027;-51
2022/01/27 07:58:09;;;;;;;25.77;9.95;;;5.20;99.90;;;;;;5096011;28;20066;-52
2022/01/27 08:00:36;;;;;;;28.02;8.20;;;5.30;99.90;;;;;;5095712;28;20020;-51
2022/01/27 08:03:03;;;;;;;21.60;7.40;;;5.50;99.90;;;;;;5095464;28;20020;-48
2022/01/27 08:05:29;;;;;;;23.75;8.43;;;5.50;99.90;;;;;;5095963;28;20107;-48
2022/01/27 08:07:54;;;;;;;30.02;10.60;;;5.50;99.90;;;;;;5095137;28;20031;-53
2022/01/27 08:10:20;;;;;;;22.88;8.02;;;5.40;99.90;;;;;;5094345;28;20107;-49
2022/01/27 08:12:46;;;;;;;26.38;9.23;;;5.60;99.90;;;;;;5095301;28;20027;-51
2022/01/27 08:15:14;;;;;;;23.63;8.02;;;5.50;99.90;;;;;;5093963;28;20020;-49
2022/01/27 08:17:40;;;;;;;29.27;9.32;;;5.50;99.90;;;;;;5095101;28;20024;-47
2022/01/27 08:20:06;;;;;;;26.30;9.80;;;5.50;99.90;;;;;;5093866;28;20024;-57
2022/01/27 08:22:37;;;;;;;26.00;8.77;;;5.40;99.90;;;;;;5094913;28;20056;-50
2022/01/27 08:25:03;;;;;;;26.60;8.45;;;5.30;99.90;;;;;;5095245;28;20099;-49
2022/01/27 08:27:30;;;;;;;28.05;8.77;;;5.20;99.90;;;;;;5095378;28;20031;-47
2022/01/27 08:30:02;;;;;;;29.63;9.75;;;5.20;99.90;;;;;;5093603;28;20403;-48
2022/01/27 08:32:39;;;;;;;22.33;8.10;;;5.30;99.90;;;;;;5093540;28;20066;-45
2022/01/27 08:35:05;;;;;;;25.17;8.10;;;5.30;99.90;;;;;;5094860;28;20020;-45
2022/01/27 08:37:31;;;;;;;20.45;8.00;;;5.50;99.90;;;;;;5093701;28;20026;-46
2022/01/27 08:39:56;;;;;;;26.80;8.90;;;5.60;99.90;;;;;;5094750;28;20034;-50
2022/01/27 08:42:22;;;;;;;20.17;8.50;;;5.50;99.90;;;;;;5093595;28;20437;-53
2022/01/27 08:44:48;;;;;;;27.67;9.38;;;5.60;99.90;;;;;;5094574;28;20099;-51
2022/01/27 08:47:15;;;;;;;29.40;8.65;;;5.60;99.90;;;;;;5094417;28;20052;-48
2022/01/27 08:49:43;;;;;;;23.23;8.93;;;5.60;99.90;;;;;;5093221;28;20024;-47
2022/01/27 08:52:09;;;;;;;23.83;7.82;;;5.60;99.90;;;;;;5093154;28;20066;-48
2022/01/27 08:54:34;;;;;;;30.08;9.13;;;5.60;99.90;;;;;;5093223;28;20024;-48
2022/01/27 08:57:00;;;;;;;27.10;9.27;;;5.50;99.90;;;;;;5093049;28;20039;-47
2022/01/27 08:59:26;;;;;;;29.98;8.73;;;5.60;99.90;;;;;;5094283;28;20035;-48
2022/01/27 09:01:51;;;;;;;25.23;9.10;;;5.60;99.90;;;;;;5093078;28;20116;-48
2022/01/27 09:04:17;;;;;;;21.40;7.63;;;5.70;99.90;;;;;;5093022;28;20030;-50
2022/01/27 09:06:42;;;;;;;22.02;8.80;;;5.80;99.90;;;;;;5094289;28;20533;-48
2022/01/27 09:09:08;;;;;;;24.17;8.75;;;6.00;99.90;;;;;;5092933;28;20028;-49
2022/01/27 09:11:35;;;;;;;26.15;8.52;;;6.10;99.90;;;;;;5092857;28;20028;-48
2022/01/27 09:14:02;;;;;;;18.10;8.27;;;6.10;99.90;;;;;;5092832;28;20043;-50
2022/01/27 09:16:31;;;;;;;24.23;9.52;;;6.10;99.90;;;;;;5093889;28;20028;-51
2022/01/27 09:18:58;;;;;;;24.27;8.57;;;6.10;99.90;;;;;;5093878;28;20027;-50
2022/01/27 09:21:27;;;;;;;23.83;8.98;;;6.30;99.90;;;;;;5093018;28;20549;-49
2022/01/27 09:23:54;;;;;;;20.50;8.57;;;6.30;99.90;;;;;;5092574;28;20107;-53
2022/01/27 09:29:07;;;;;;;26.90;9.68;;;6.40;99.90;;;;;;5093924;28;20024;-51
2022/01/27 09:31:33;;;;;;;23.35;8.25;;;6.30;99.90;;;;;;5092611;28;20020;-48
2022/01/27 09:33:59;;;;;;;22.30;7.85;;;6.40;99.90;;;;;;5092483;28;20031;-48
2022/01/27 09:36:25;;;;;;;26.60;9.40;;;6.40;99.90;;;;;;5092740;28;20016;-47
2022/01/27 09:38:50;;;;;;;22.70;7.85;;;6.30;99.90;;;;;;5092701;28;20020;-49
2022/01/27 09:41:21;;;;;;;36.50;11.80;;;6.40;99.90;;;;;;5092370;28;20028;-48
2022/01/27 09:43:48;;;;;;;33.55;13.43;;;6.50;99.90;;;;;;5093859;28;20043;-49
2022/01/27 09:46:18;;;;;;;42.25;14.38;;;6.40;99.90;;;;;;5093549;28;20098;-47
2022/01/27 09:48:47;;;;;;;34.25;12.85;;;6.40;99.90;;;;;;5092123;28;20120;-50
2022/01/27 09:53:50;;;;;;;23.45;9.32;;;6.30;99.90;;;;;;5093463;28;20452;-46
2022/01/27 09:56:16;;;;;;;24.08;8.40;;;6.40;99.90;;;;;;5092258;28;20048;-46
2022/01/27 09:58:41;;;;;;;23.67;9.30;;;6.40;99.90;;;;;;5093461;28;20032;-45
2022/01/27 10:01:07;;;;;;;28.38;9.15;;;6.40;99.90;;;;;;5092400;28;20071;-50
2022/01/27 10:03:33;;;;;;;24.70;8.70;;;6.50;99.90;;;;;;5092131;28;20024;-49
2022/01/27 10:06:12;;;;;;;27.63;10.50;;;6.50;99.90;;;;;;5093339;28;20062;-46
2022/01/27 10:08:40;;;;;;;21.83;8.10;;;6.50;99.90;;;;;;5092036;28;20028;-46
2022/01/27 10:11:17;;;;;;;23.30;9.23;;;6.50;99.90;;;;;;5093213;28;20078;-46
2022/01/27 10:13:45;;;;;;;21.70;8.75;;;6.60;99.90;;;;;;5092330;28;20025;-46
2022/01/27 10:16:31;;;;;;;21.70;8.55;;;6.60;99.90;;;;;;5092326;28;20040;-47
2022/01/27 10:19:07;;;;;;;30.13;9.27;;;6.60;99.90;;;;;;5093107;28;20047;-51
2022/01/27 10:21:34;;;;;;;27.00;9.80;;;6.60;99.90;;;;;;5093177;28;20047;-47
2022/01/27 10:24:21;;;;;;;23.48;8.40;;;6.60;99.90;;;;;;5092116;28;20027;-47
2022/01/27 10:26:54;;;;;;;22.80;9.00;;;6.60;99.90;;;;;;5093441;28;20052;-48
2022/01/27 10:29:35;;;;;;;21.23;8.57;;;6.60;99.90;;;;;;5093524;28;20013;-47
2022/01/27 10:32:06;;;;;;;24.63;9.67;;;6.70;99.90;;;;;;5091958;28;20097;-46
2022/01/27 10:34:59;;;;;;;29.17;9.35;;;6.70;99.90;;;;;;5092708;28;20313;-47
2022/01/27 10:37:24;;;;;;;21.52;9.50;;;6.70;99.90;;;;;;5093124;28;20532;-47
2022/01/27 10:39:50;;;;;;;25.83;10.23;;;6.70;99.90;;;;;;5091803;28;20112;-47
2022/01/27 10:42:21;;;;;;;32.83;11.75;;;6.70;99.90;;;;;;5093007;28;20036;-46
2022/01/27 10:44:55;;;;;;;28.73;12.23;;;6.70;99.90;;;;;;5092603;28;20034;-47
2022/01/27 10:47:27;;;;;;;24.13;10.27;;;6.70;99.90;;;;;;5093062;28;20028;-48
2022/01/27 10:53:03;;;;;;;25.45;9.35;;;6.90;99.90;;;;;;5093266;28;20468;-46
2022/01/27 10:55:20;;;;;;;26.13;9.57;;;6.80;99.90;;;;;;5091704;28;20033;-51
2022/01/27 10:57:51;;;;;;;25.13;8.83;;;6.80;99.90;;;;;;5091472;28;20062;-48
2022/01/27 11:00:18;;;;;;;24.38;9.50;;;6.90;99.90;;;;;;5092310;28;20281;-47
2022/01/27 11:03:04;;;;;;;23.50;7.93;;;6.90;99.90;;;;;;5092802;28;20074;-47
2022/01/27 11:05:38;;;;;;;22.88;8.02;;;6.90;99.90;;;;;;5093118;28;20103;-47
2022/01/27 11:08:04;;;;;;;24.40;8.70;;;7.00;99.90;;;;;;5096416;28;20107;-48
2022/01/27 11:10:30;;;;;;;22.85;8.35;;;6.90;99.90;;;;;;5096421;28;20441;-49
2022/01/27 11:12:58;;;;;;;22.55;9.32;;;6.90;99.90;;;;;;5095435;28;20039;-48
2022/01/27 11:15:24;;;;;;;29.35;11.27;;;6.90;99.90;;;;;;5096328;28;20012;-46
2022/01/27 11:17:50;;;;;;;31.58;11.30;;;6.90;99.90;;;;;;5095288;28;20091;-49
2022/01/27 11:22:58;;;;;;;37.10;12.70;;;7.00;99.90;;;;;;5096220;28;20032;-48
2022/01/27 11:27:58;;;;;;;41.63;13.50;;;6.90;99.90;;;;;;5096571;28;20028;-47
2022/01/27 11:30:48;;;;;;;51.80;17.45;;;6.90;99.90;;;;;;5096328;28;20103;-47
2022/01/27 11:33:15;;;;;;;67.00;23.45;;;7.00;99.90;;;;;;5095953;28;20365;-48
2022/01/27 11:35:41;;;;;;;27.17;9.93;;;7.00;99.90;;;;;;5094716;28;20024;-47
2022/01/27 11:38:08;;;;;;;24.13;10.20;;;7.00;99.90;;;;;;5094657;28;20024;-47
2022/01/27 11:40:35;;;;;;;28.80;10.63;;;7.10;99.90;;;;;;5096375;28;20020;-47
2022/01/27 11:43:03;;;;;;;41.97;17.48;;;7.10;99.90;;;;;;5095703;28;20024;-47
2022/01/27 11:45:32;;;;;;;23.23;10.23;;;7.10;99.90;;;;;;5094498;28;20035;-47
2022/01/27 11:48:06;;;;;;;19.17;7.38;;;7.10;99.90;;;;;;5096158;28;20048;-48
2022/01/27 11:50:58;;;;;;;21.42;7.38;;;7.00;99.90;;;;;;5095351;28;20099;-48
2022/01/27 11:53:39;;;;;;;16.95;7.47;;;7.10;99.90;;;;;;5095679;28;20028;-48
2022/01/27 11:56:31;;;;;;;19.65;8.13;;;7.20;99.90;;;;;;5095895;28;20043;-47
2022/01/27 11:59:08;;;;;;;21.00;7.50;;;7.30;99.90;;;;;;5094464;28;20040;-49
2022/01/27 12:01:35;;;;;;;21.27;8.55;;;7.20;99.90;;;;;;5095537;28;20036;-48
2022/01/27 12:04:07;;;;;;;17.42;7.78;;;7.20;99.90;;;;;;5095469;28;20020;-49
2022/01/27 12:06:34;;;;;;;19.00;7.82;;;7.30;99.90;;;;;;5094084;28;20476;-48
2022/01/27 12:09:20;;;;;;;21.63;8.38;;;7.20;99.90;;;;;;5095172;28;20028;-48
2022/01/27 12:12:01;;;;;;;17.77;7.13;;;7.30;99.90;;;;;;5095344;28;20086;-48
2022/01/27 12:14:55;;;;;;;16.38;7.32;;;7.20;99.90;;;;;;5095168;28;20028;-48
2022/01/27 12:17:22;;;;;;;17.65;6.68;;;7.30;99.90;;;;;;5094946;28;20042;-48
2022/01/27 12:19:56;;;;;;;17.10;7.53;;;7.40;99.90;;;;;;5093901;28;20035;-47
2022/01/27 12:22:39;;;;;;;15.93;5.72;;;7.40;99.90;;;;;;5094451;28;20111;-48
2022/01/27 12:25:06;;;;;;;13.95;6.60;;;7.40;99.90;;;;;;5094713;28;20020;-47
2022/01/27 12:27:32;;;;;;;21.45;6.30;;;7.40;99.90;;;;;;5094828;28;20027;-47
2022/01/27 12:29:59;;;;;;;16.48;6.32;;;7.30;99.90;;;;;;5094655;28;20027;-49
2022/01/27 12:32:32;;;;;;;13.15;6.63;;;7.30;99.90;;;;;;5093670;28;20066;-48
2022/01/27 12:35:24;;;;;;;14.63;6.40;;;7.30;99.90;;;;;;5093560;28;20016;-50
2022/01/27 12:37:51;;;;;;;;;;;7.30;99.90;;;;;;5094182;28;20036;-49
2022/01/27 12:40:25;;;;;;;16.55;6.40;;;7.20;99.90;;;;;;5093415;28;20042;-50
2022/01/27 12:43:01;;;;;;;17.35;6.82;;;7.30;99.90;;;;;;5093529;28;20407;-49
2022/01/27 12:45:31;;;;;;;17.02;6.40;;;7.30;99.90;;;;;;5094953;28;20019;-50
2022/01/27 12:48:01;;;;;;;16.90;6.72;;;7.30;99.90;;;;;;5094930;28;20231;-48
2022/01/27 12:50:28;;;;;;;16.50;6.65;;;7.20;99.90;;;;;;5093204;28;20024;-49
2022/01/27 12:52:59;;;;;;;21.08;7.25;;;7.20;99.90;;;;;;5094747;28;20065;-49
2022/01/27 12:55:40;;;;;;;17.50;6.82;;;7.20;99.90;;;;;;5094824;28;20024;-49
2022/01/27 12:58:08;;;;;;;15.27;5.75;;;7.20;99.90;;;;;;5093292;28;20040;-50
2022/01/27 13:00:43;;;;;;;13.75;6.07;;;7.20;99.90;;;;;;5093245;28;20492;-48
2022/01/27 13:03:09;;;;;;;13.38;6.95;;;7.30;99.90;;;;;;5093051;28;20028;-48
2022/01/27 13:05:37;;;;;;;12.63;5.32;;;7.30;99.90;;;;;;5093370;28;20032;-47
2022/01/27 13:08:13;;;;;;;13.13;6.03;;;7.20;99.90;;;;;;5094079;28;20024;-48
2022/01/27 13:10:45;;;;;;;21.40;6.00;;;7.20;99.90;;;;;;5093873;28;20026;-49
2022/01/27 13:13:15;;;;;;;13.93;5.85;;;7.20;99.90;;;;;;5094175;28;20020;-47
2022/01/27 13:15:41;;;;;;;17.95;6.47;;;7.20;99.90;;;;;;5093784;28;20031;-50
2022/01/27 13:18:26;;;;;;;15.45;6.15;;;7.30;99.90;;;;;;5093915;28;20402;-49
2022/01/27 13:20:55;;;;;;;14.48;6.18;;;7.30;99.90;;;;;;5093304;28;20050;-49
2022/01/27 13:23:29;;;;;;;17.33;7.20;;;7.30;99.90;;;;;;5093090;28;20028;-50
2022/01/27 13:26:00;;;;;;;18.02;6.30;;;7.40;99.90;;;;;;5093959;28;20077;-47
2022/01/27 13:28:29;;;;;;;16.13;6.25;;;7.40;99.90;;;;;;5092689;28;20032;-51
2022/01/27 13:30:58;;;;;;;16.50;6.32;;;7.40;99.90;;;;;;5092292;28;20051;-46
2022/01/27 13:33:25;;;;;;;14.07;5.82;;;7.40;99.90;;;;;;5092517;28;20024;-47
2022/01/27 13:35:53;;;;;;;15.98;5.80;;;7.40;99.90;;;;;;5092839;28;20059;-47
2022/01/27 13:38:50;;;;;;;14.88;5.40;;;7.30;99.90;;;;;;5093672;28;20020;-46
2022/01/27 13:41:16;;;;;;;15.95;6.75;;;7.30;99.90;;;;;;5092427;28;20024;-47
2022/01/27 13:43:44;;;;;;;17.02;7.00;;;7.20;99.90;;;;;;5092349;28;20024;-47
2022/01/27 13:46:11;;;;;;;14.93;6.50;;;7.20;99.90;;;;;;5092280;28;20027;-49
2022/01/27 13:48:45;;;;;;;16.75;7.18;;;7.10;99.90;;;;;;5092228;28;20042;-47
2022/01/27 13:51:22;;;;;;;14.85;6.40;;;7.10;99.90;;;;;;5092334;28;20090;-46
2022/01/27 13:54:04;;;;;;;15.88;6.22;;;7.20;99.90;;;;;;5092588;28;20024;-46
2022/01/27 13:56:43;;;;;;;13.40;5.93;;;7.20;99.90;;;;;;5093930;28;20072;-46
2022/01/27 13:59:16;;;;;;;14.88;5.05;;;7.20;99.90;;;;;;5092102;28;20109;-47